createdAt,value
2018-12-05T00:00:30.744Z,2.50
2018-12-05T00:03:04.478Z,2.80
2018-12-05T00:05:38.172Z,3.15
2018-12-05T00:08:09.363Z,3.92
2018-12-05T00:10:42.507Z,3.52
2018-12-05T00:18:07.867Z,4.08
2018-12-05T00:20:41.155Z,4.75
2018-12-05T00:23:14.696Z,4.12
2018-12-05T00:25:43.788Z,4.08
2018-12-05T00:35:44.079Z,4.10
2018-12-05T00:38:21.183Z,4.47
2018-12-05T00:48:25.371Z,4.92
2018-12-05T00:50:59.572Z,3.45
2018-12-05T00:53:33.343Z,4.35
2018-12-05T00:56:04.642Z,3.90
2018-12-05T00:58:35.255Z,5.12
2018-12-05T01:01:04.055Z,3.98
2018-12-05T01:03:32.843Z,4.20
2018-12-05T01:06:01.638Z,3.65
2018-12-05T01:08:34.933Z,3.65
2018-12-05T01:11:08.620Z,5.53
2018-12-05T01:13:42.273Z,4.22
2018-12-05T01:16:13.424Z,4.08
2018-12-05T01:18:46.712Z,7.67
2018-12-05T01:21:17.083Z,3.40
2018-12-05T01:23:50.289Z,3.08
2018-12-05T01:26:21.524Z,4.97
2018-12-05T01:28:54.579Z,3.37
2018-12-05T01:31:30.160Z,4.67
2018-12-05T01:34:03.092Z,3.27
2018-12-05T01:36:34.283Z,3.62
2018-12-05T01:39:06.147Z,4.50
2018-12-05T01:41:36.904Z,3.47
2018-12-05T01:44:10.283Z,3.80
2018-12-05T01:46:43.882Z,4.45
2018-12-05T01:49:17.604Z,3.52
2018-12-05T01:51:46.724Z,3.65
2018-12-05T01:54:20.076Z,4.10
2018-12-05T01:56:51.507Z,3.15
2018-12-05T01:59:24.416Z,3.47
2018-12-05T02:01:57.363Z,4.08
2018-12-05T02:04:30.936Z,4.22
2018-12-05T02:07:04.732Z,5.22
2018-12-05T02:09:37.597Z,4.80
2018-12-05T02:12:11.248Z,4.15
2018-12-05T02:14:45.008Z,4.53
2018-12-05T02:17:16.120Z,3.60
2018-12-05T02:19:49.276Z,5.15
2018-12-05T02:22:20.360Z,6.90
2018-12-05T02:24:50.983Z,4.65
2018-12-05T02:27:19.444Z,5.15
2018-12-05T02:29:57.378Z,4.62
2018-12-05T02:32:28.612Z,5.00
2018-12-05T02:34:59.335Z,4.37
2018-12-05T02:37:30.185Z,5.05
2018-12-05T02:40:03.200Z,5.22
2018-12-05T02:42:34.372Z,3.85
2018-12-05T02:45:05.392Z,4.33
2018-12-05T02:47:38.464Z,3.70
2018-12-05T02:50:09.636Z,3.67
2018-12-05T02:52:40.508Z,4.85
2018-12-05T02:55:13.680Z,5.60
2018-12-05T02:57:47.347Z,5.05
2018-12-05T03:00:21.116Z,4.55
2018-12-05T03:02:54.860Z,5.35
2018-12-05T03:05:27.713Z,5.70
2018-12-05T03:07:58.916Z,4.22
2018-12-05T03:10:32.208Z,4.03
2018-12-05T03:13:05.789Z,3.83
2018-12-05T03:15:37.032Z,4.47
2018-12-05T03:18:07.836Z,5.22
2018-12-05T03:20:41.065Z,4.62
2018-12-05T03:23:14.708Z,5.50
2018-12-05T03:25:48.604Z,4.83
2018-12-05T03:28:22.345Z,3.60
2018-12-05T03:30:55.922Z,4.30
2018-12-05T03:33:27.138Z,4.50
2018-12-05T03:35:57.716Z,4.72
2018-12-05T03:38:30.575Z,4.75
2018-12-05T03:41:01.882Z,4.30
2018-12-05T03:43:32.589Z,3.80
2018-12-05T03:46:01.560Z,4.50
2018-12-05T03:48:35.193Z,3.65
2018-12-05T03:51:08.107Z,5.33
2018-12-05T03:53:38.670Z,4.47
2018-12-05T03:56:12.296Z,5.75
2018-12-05T03:58:43.547Z,5.53
2018-12-05T04:01:17.028Z,4.53
2018-12-05T04:03:48.301Z,4.83
2018-12-05T04:06:21.841Z,3.27
2018-12-05T04:08:55.648Z,5.28
2018-12-05T04:11:29.432Z,4.08
2018-12-05T04:14:03.220Z,3.67
2018-12-05T04:16:37.002Z,4.22
2018-12-05T04:19:09.997Z,4.17
2018-12-05T04:21:42.929Z,3.70
2018-12-05T04:24:12.010Z,4.83
2018-12-05T04:26:42.885Z,4.37
2018-12-05T04:29:10.819Z,2.85
2018-12-05T04:31:41.681Z,3.80
2018-12-05T04:34:14.956Z,4.25
2018-12-05T04:36:48.125Z,4.08
2018-12-05T04:39:21.672Z,4.70
2018-12-05T04:41:54.651Z,4.80
2018-12-05T04:44:28.581Z,4.00
2018-12-05T04:47:01.549Z,4.85
2018-12-05T04:49:30.812Z,4.05
2018-12-05T04:52:04.441Z,4.55
2018-12-05T04:54:38.236Z,3.70
2018-12-05T04:57:12.204Z,4.00
2018-12-05T04:59:45.121Z,4.42
2018-12-05T05:02:15.645Z,4.55
2018-12-05T05:04:46.459Z,4.83
2018-12-05T05:07:19.992Z,6.80
2018-12-05T05:09:53.101Z,3.83
2018-12-05T05:12:26.746Z,4.62
2018-12-05T05:14:55.216Z,3.25
2018-12-05T05:17:28.736Z,5.25
2018-12-05T05:20:01.580Z,5.55
2018-12-05T05:22:34.481Z,5.25
2018-12-05T05:25:04.848Z,4.25
2018-12-05T05:27:35.798Z,4.67
2018-12-05T05:30:08.993Z,4.97
2018-12-05T05:32:42.860Z,5.83
2018-12-05T05:35:16.636Z,5.85
2018-12-05T05:37:49.600Z,4.20
2018-12-05T05:40:22.552Z,5.40
2018-12-05T05:42:55.462Z,5.40
2018-12-05T05:45:28.344Z,5.83
2018-12-05T05:48:01.320Z,6.53
2018-12-05T05:50:32.516Z,5.92
2018-12-05T05:53:05.951Z,5.22
2018-12-05T05:55:39.072Z,4.05
2018-12-05T05:58:11.969Z,6.15
2018-12-05T06:00:42.464Z,5.80
2018-12-05T06:03:15.853Z,5.62
2018-12-05T06:05:46.355Z,5.75
2018-12-05T06:08:19.908Z,4.65
2018-12-05T06:10:53.712Z,5.10
2018-12-05T06:13:26.956Z,6.05
2018-12-05T06:15:57.368Z,5.80
2018-12-05T06:18:30.929Z,5.85
2018-12-05T06:21:01.364Z,7.03
2018-12-05T06:23:34.883Z,4.62
2018-12-05T06:26:07.716Z,5.17
2018-12-05T06:28:41.462Z,4.25
2018-12-05T06:31:11.925Z,4.72
2018-12-05T06:33:45.309Z,6.67
2018-12-05T06:36:16.471Z,5.22
2018-12-05T06:38:49.820Z,6.17
2018-12-05T06:41:22.729Z,4.78
2018-12-05T06:43:51.990Z,4.85
2018-12-05T06:46:25.243Z,4.80
2018-12-05T06:48:56.556Z,4.83
2018-12-05T06:51:25.527Z,5.70
2018-12-05T06:53:59.328Z,4.75
2018-12-05T06:58:55.952Z,5.70
2018-12-05T07:01:25.329Z,6.33
2018-12-05T07:03:58.652Z,5.75
2018-12-05T07:06:29.944Z,6.15
2018-12-05T07:09:04.160Z,6.08
2018-12-05T07:11:32.944Z,6.42
2018-12-05T07:14:06.392Z,6.12
2018-12-05T07:16:37.567Z,6.53
2018-12-05T07:19:10.980Z,6.55
2018-12-05T07:21:43.980Z,4.60
2018-12-05T07:24:16.962Z,4.35
2018-12-05T07:26:49.917Z,5.45
2018-12-05T07:29:22.752Z,5.28
2018-12-05T07:31:53.259Z,6.08
2018-12-05T07:34:26.795Z,5.58
2018-12-05T07:36:59.713Z,5.00
2018-12-05T07:39:32.556Z,5.30
2018-12-05T07:42:03.042Z,6.30
2018-12-05T07:44:36.344Z,4.10
2018-12-05T07:47:09.420Z,6.10
2018-12-05T07:49:46.268Z,6.20
2018-12-05T07:52:19.095Z,7.20
2018-12-05T07:54:50.392Z,5.83
2018-12-05T07:57:23.456Z,5.85
2018-12-05T07:59:58.227Z,6.83
2018-12-05T08:02:29.485Z,6.72
2018-12-05T08:05:02.993Z,5.67
2018-12-05T08:07:33.320Z,4.83
2018-12-05T08:10:06.672Z,6.37
2018-12-05T08:12:37.392Z,4.85
2018-12-05T08:15:10.468Z,5.45
2018-12-05T08:17:37.784Z,6.28
2018-12-05T08:20:10.645Z,6.58
2018-12-05T08:22:43.545Z,5.25
2018-12-05T08:25:17.276Z,5.40
2018-12-05T08:27:51.047Z,5.35
2018-12-05T08:30:24.139Z,6.35
2018-12-05T08:32:57.815Z,4.37
2018-12-05T08:35:27.080Z,5.90
2018-12-05T08:37:57.452Z,4.92
2018-12-05T08:40:26.188Z,5.85
2018-12-05T08:42:59.589Z,5.45
2018-12-05T08:45:32.608Z,4.35
2018-12-05T08:48:03.297Z,5.12
2018-12-05T08:50:34.003Z,5.28
2018-12-05T08:53:07.336Z,5.80
2018-12-05T08:55:38.548Z,6.95
2018-12-05T08:58:11.765Z,3.77
2018-12-05T09:00:44.768Z,7.12
2018-12-05T09:03:14.163Z,5.70
2018-12-05T09:05:43.140Z,5.55
2018-12-05T09:08:16.519Z,5.15
2018-12-05T09:10:50.308Z,4.58
2018-12-05T09:13:17.584Z,5.10
2018-12-05T09:15:51.328Z,5.40
2018-12-05T09:18:20.576Z,5.33
2018-12-05T09:20:51.612Z,5.45
2018-12-05T09:23:20.431Z,4.30
2018-12-05T09:25:53.704Z,5.72
2018-12-05T09:28:27.492Z,4.47
2018-12-05T09:30:58.591Z,5.22
2018-12-05T09:33:30.582Z,5.08
2018-12-05T09:36:03.700Z,5.05
2018-12-05T09:38:36.646Z,4.22
2018-12-05T09:41:07.887Z,5.20
2018-12-05T09:43:41.237Z,4.05
2018-12-05T09:46:14.780Z,4.37
2018-12-05T09:48:45.884Z,5.95
2018-12-05T09:51:16.860Z,5.15
2018-12-05T09:53:50.065Z,4.00
2018-12-05T09:56:21.184Z,3.52
2018-12-05T09:58:52.990Z,5.70
2018-12-05T10:01:26.391Z,3.05
2018-12-05T10:04:00.097Z,4.45
2018-12-05T10:06:31.331Z,4.50
2018-12-05T10:09:04.580Z,4.17
2018-12-05T10:11:38.352Z,5.05
2018-12-05T10:14:11.936Z,3.80
2018-12-05T10:16:45.552Z,4.92
2018-12-05T10:19:19.372Z,4.92
2018-12-05T10:21:52.244Z,4.40
2018-12-05T10:24:20.640Z,4.45
2018-12-05T10:26:53.835Z,4.03
2018-12-05T10:29:27.580Z,4.53
2018-12-05T10:32:00.516Z,4.92
2018-12-05T10:34:34.169Z,4.90
2018-12-05T10:37:07.845Z,5.05
2018-12-05T10:39:37.043Z,5.05
2018-12-05T10:42:05.775Z,4.40
2018-12-05T10:44:39.135Z,4.45
2018-12-05T10:47:08.388Z,4.45
2018-12-05T10:49:41.707Z,5.75
2018-12-05T10:52:12.720Z,5.60
2018-12-05T10:54:46.021Z,5.55
2018-12-05T10:57:13.328Z,5.15
2018-12-05T10:59:46.606Z,4.90
2018-12-05T11:02:26.164Z,4.40
2018-12-05T11:05:04.712Z,5.28
2018-12-05T11:07:43.464Z,4.42
2018-12-05T11:10:22.147Z,4.95
2018-12-05T11:13:00.955Z,4.75
2018-12-05T11:15:36.975Z,6.22
2018-12-05T11:18:16.488Z,5.17
2018-12-05T11:20:55.464Z,5.97
2018-12-05T11:23:34.272Z,5.75
2018-12-05T11:26:11.152Z,5.08
2018-12-05T11:28:41.661Z,6.12
2018-12-05T11:31:12.658Z,6.12
2018-12-05T11:33:42.580Z,4.83
2018-12-05T11:36:17.848Z,4.75
2018-12-05T11:38:51.556Z,5.37
2018-12-05T11:41:25.101Z,6.45
2018-12-05T11:43:57.968Z,5.58
2018-12-05T11:46:29.092Z,5.62
2018-12-05T11:48:57.728Z,5.60
2018-12-05T11:51:28.424Z,4.87
2018-12-05T11:53:58.870Z,4.78
2018-12-05T11:56:32.036Z,5.33
2018-12-05T11:59:00.509Z,6.60
2018-12-05T12:01:33.655Z,5.92
2018-12-05T12:04:07.109Z,5.12
2018-12-05T12:06:40.905Z,5.83
2018-12-05T12:09:14.716Z,5.92
2018-12-05T12:11:43.948Z,4.55
2018-12-05T12:14:17.195Z,4.47
2018-12-05T12:16:48.420Z,4.83
2018-12-05T12:19:21.388Z,5.40
2018-12-05T12:21:52.593Z,5.37
2018-12-05T12:24:25.960Z,5.30
2018-12-05T12:26:59.520Z,5.47
2018-12-05T12:29:32.608Z,4.28
2018-12-05T12:32:03.504Z,5.33
2018-12-05T12:34:36.819Z,5.67
2018-12-05T12:37:08.008Z,6.75
2018-12-05T12:39:41.284Z,4.58
2018-12-05T12:42:15.032Z,5.92
2018-12-05T12:44:42.356Z,6.50
2018-12-05T12:47:13.356Z,7.60
2018-12-05T12:49:44.220Z,6.58
2018-12-05T12:52:17.784Z,4.42
2018-12-05T12:54:51.368Z,6.45
2018-12-05T12:57:21.708Z,5.80
2018-12-05T12:59:55.048Z,4.55
2018-12-05T13:02:28.816Z,6.00
2018-12-05T13:05:02.443Z,5.62
2018-12-05T13:07:36.076Z,4.92
2018-12-05T13:10:09.788Z,5.05
2018-12-05T13:12:40.155Z,4.90
2018-12-05T13:15:11.336Z,5.78
2018-12-05T13:17:42.155Z,5.47
2018-12-05T13:20:15.284Z,5.30
2018-12-05T13:22:46.132Z,5.42
2018-12-05T13:25:19.476Z,6.50
2018-12-05T13:27:48.690Z,6.20
2018-12-05T13:30:21.937Z,6.47
2018-12-05T13:32:53.151Z,6.42
2018-12-05T13:37:51.152Z,6.40
2018-12-05T13:40:22.049Z,6.12
2018-12-05T13:42:55.365Z,6.28
2018-12-05T13:45:23.777Z,7.20
2018-12-05T13:47:51.116Z,5.72
2018-12-05T13:50:19.217Z,6.87
2018-12-05T13:52:52.564Z,7.22
2018-12-05T13:55:23.604Z,7.78
2018-12-05T13:57:52.351Z,6.62
2018-12-05T14:00:25.678Z,4.70
2018-12-05T14:02:55.005Z,7.60
2018-12-05T14:05:28.168Z,6.92
2018-12-05T14:08:01.651Z,5.95
2018-12-05T14:10:35.512Z,7.12
2018-12-05T14:13:09.164Z,6.72
2018-12-05T14:15:40.548Z,6.92
2018-12-05T14:18:13.816Z,6.53
2018-12-05T14:20:41.134Z,5.20
2018-12-05T14:23:14.882Z,5.12
2018-12-05T14:25:45.992Z,6.90
2018-12-05T14:28:19.180Z,5.05
2018-12-05T14:30:50.314Z,5.92
2018-12-05T14:33:23.376Z,5.80
2018-12-05T14:35:57.008Z,5.95
2018-12-05T14:38:30.729Z,6.40
2018-12-05T14:41:01.215Z,6.75
2018-12-05T14:43:31.744Z,6.55
2018-12-05T14:46:04.971Z,6.70
2018-12-05T14:48:35.471Z,6.03
2018-12-05T14:51:06.152Z,5.90
2018-12-05T14:53:39.648Z,6.45
2018-12-05T14:56:13.384Z,7.05
2018-12-05T14:58:44.729Z,7.35
2018-12-05T15:01:15.520Z,7.10
2018-12-05T15:03:46.540Z,6.12
2018-12-05T15:06:19.712Z,7.37
2018-12-05T15:08:53.382Z,7.42
2018-12-05T15:11:20.725Z,7.60
2018-12-05T15:13:51.593Z,7.37
2018-12-05T15:16:24.756Z,8.40
2018-12-05T15:18:54.019Z,8.10
2018-12-05T15:21:22.683Z,6.87
2018-12-05T15:23:55.660Z,7.42
2018-12-05T15:26:29.372Z,8.58
2018-12-05T15:29:03.117Z,7.25
2018-12-05T15:31:34.053Z,6.30
2018-12-05T15:34:07.354Z,6.62
2018-12-05T15:36:37.735Z,7.30
2018-12-05T15:39:06.764Z,7.45
2018-12-05T15:41:39.645Z,6.25
2018-12-05T15:44:13.179Z,7.75
2018-12-05T15:46:44.432Z,6.53
2018-12-05T15:49:18.716Z,6.10
2018-12-05T15:51:48.010Z,6.70
2018-12-05T15:54:21.147Z,7.75
2018-12-05T15:56:52.336Z,7.20
2018-12-05T15:59:25.698Z,6.55
2018-12-05T16:02:00.318Z,7.00
2018-12-05T16:04:33.847Z,8.10
2018-12-05T16:07:04.984Z,7.55
2018-12-05T16:09:35.652Z,6.30
2018-12-05T16:12:09.070Z,6.70
2018-12-05T16:14:37.378Z,8.40
2018-12-05T16:17:10.389Z,6.78
2018-12-05T16:19:39.335Z,8.40
2018-12-05T16:22:12.504Z,7.22
2018-12-05T16:24:43.875Z,7.85
2018-12-05T16:27:17.100Z,6.67
2018-12-05T16:29:50.708Z,6.42
2018-12-05T16:32:21.891Z,8.33
2018-12-05T16:34:55.448Z,6.62
2018-12-05T16:37:24.336Z,8.75
2018-12-05T16:39:54.956Z,6.67
2018-12-05T16:42:28.237Z,7.20
2018-12-05T16:45:01.722Z,7.65
2018-12-05T16:47:35.464Z,8.70
2018-12-05T16:50:08.488Z,8.60
2018-12-05T16:52:41.348Z,7.80
2018-12-05T16:55:14.892Z,6.25
2018-12-05T16:57:47.799Z,6.87
2018-12-05T17:00:20.726Z,8.83
2018-12-05T17:02:54.507Z,9.00
2018-12-05T17:05:28.310Z,7.83
2018-12-05T17:08:02.137Z,7.55
2018-12-05T17:10:35.525Z,8.75
2018-12-05T17:13:06.343Z,6.75
2018-12-05T17:15:39.532Z,7.50
2018-12-05T17:18:08.588Z,7.65
2018-12-05T17:20:41.744Z,7.30
2018-12-05T17:23:15.440Z,6.15
2018-12-05T17:25:49.256Z,8.45
2018-12-05T17:28:20.524Z,7.42
2018-12-05T17:30:54.001Z,7.12
2018-12-05T17:33:25.131Z,7.08
2018-12-05T17:35:58.292Z,7.92
2018-12-05T17:38:27.663Z,7.50
2018-12-05T17:41:00.891Z,8.55
2018-12-05T17:43:33.804Z,7.65
2018-12-05T17:46:07.476Z,6.85
2018-12-05T17:48:40.365Z,10.10
2018-12-05T17:51:11.557Z,7.90
2018-12-05T17:53:44.632Z,7.50
2018-12-05T17:56:14.991Z,7.20
2018-12-05T17:58:48.396Z,7.45
2018-12-05T18:01:18.832Z,6.62
2018-12-05T18:03:49.708Z,9.13
2018-12-05T18:06:22.768Z,9.20
2018-12-05T18:08:53.168Z,8.33
2018-12-05T18:11:30.336Z,8.00
2018-12-05T18:14:04.141Z,8.38
2018-12-05T18:16:37.675Z,7.22
2018-12-05T18:19:05.009Z,9.93
2018-12-05T18:21:35.371Z,6.90
2018-12-05T18:24:06.256Z,7.37
2018-12-05T18:26:37.036Z,9.20
2018-12-05T18:29:10.354Z,7.37
2018-12-05T18:31:44.056Z,9.15
2018-12-05T18:34:17.793Z,10.43
2018-12-05T18:36:51.409Z,8.75
2018-12-05T18:39:24.364Z,8.20
2018-12-05T18:41:57.364Z,7.55
2018-12-05T18:44:31.071Z,7.62
2018-12-05T18:47:03.952Z,7.53
2018-12-05T18:49:37.676Z,7.80
2018-12-05T18:52:11.180Z,7.45
2018-12-05T18:54:44.852Z,8.65
2018-12-05T18:57:18.528Z,8.50
2018-12-05T18:59:52.191Z,8.93
2018-12-05T19:02:23.329Z,8.13
2018-12-05T19:04:57.542Z,7.25
2018-12-05T19:07:31.160Z,8.75
2018-12-05T19:10:00.382Z,9.10
2018-12-05T19:12:28.857Z,7.83
2018-12-05T19:15:00.560Z,8.08
2018-12-05T19:17:29.362Z,8.43
2018-12-05T19:20:02.651Z,6.92
2018-12-05T19:22:32.177Z,8.65
2018-12-05T19:25:05.265Z,8.23
2018-12-05T19:27:38.780Z,9.03
2018-12-05T19:30:12.456Z,9.40
2018-12-05T19:32:46.220Z,8.60
2018-12-05T19:35:17.248Z,8.18
2018-12-05T19:37:47.992Z,7.42
2018-12-05T19:40:21.272Z,7.92
2018-12-05T19:42:54.795Z,8.75
2018-12-05T19:45:28.544Z,6.80
2018-12-05T19:48:02.393Z,8.28
2018-12-05T19:50:36.084Z,9.15
2018-12-05T19:53:09.256Z,9.13
2018-12-05T19:55:42.988Z,8.55
2018-12-05T19:58:16.035Z,10.40
2018-12-05T20:00:46.443Z,8.15
2018-12-05T20:03:19.956Z,7.05
2018-12-05T20:05:47.358Z,7.47
2018-12-05T20:08:25.343Z,8.53
2018-12-05T20:10:58.737Z,9.10
2018-12-05T20:13:34.770Z,7.53
2018-12-05T20:16:10.155Z,7.78
2018-12-05T20:18:44.096Z,9.48
2018-12-05T20:21:17.829Z,9.00
2018-12-05T20:23:47.132Z,10.32
2018-12-05T20:26:21.073Z,9.33
2018-12-05T20:28:52.460Z,8.70
2018-12-05T20:31:23.381Z,7.97
2018-12-05T20:33:56.765Z,7.85
2018-12-05T20:36:30.735Z,7.03
2018-12-05T20:39:00.763Z,8.18
2018-12-05T20:41:33.444Z,8.90
2018-12-05T20:44:04.574Z,8.03
2018-12-05T20:46:37.853Z,7.62
2018-12-05T20:49:11.447Z,7.33
2018-12-05T20:51:40.709Z,8.50
2018-12-05T20:54:14.050Z,11.33
2018-12-05T20:56:45.312Z,8.08
2018-12-05T20:59:16.049Z,7.85
2018-12-05T21:01:46.971Z,7.78
2018-12-05T21:04:20.611Z,9.53
2018-12-05T21:06:49.488Z,8.48
2018-12-05T21:09:23.009Z,7.95
2018-12-05T21:11:56.916Z,8.63
2018-12-05T21:14:28.104Z,8.73
2018-12-05T21:17:01.745Z,8.65
2018-12-05T21:19:35.598Z,8.08
2018-12-05T21:22:05.812Z,9.18
2018-12-05T21:24:38.949Z,8.60
2018-12-05T21:27:12.448Z,8.08
2018-12-05T21:29:45.972Z,8.90
2018-12-05T21:32:17.047Z,7.92
2018-12-05T21:34:50.983Z,9.75
2018-12-05T21:37:24.420Z,8.55
2018-12-05T21:39:52.821Z,7.85
2018-12-05T21:42:26.247Z,9.40
2018-12-05T21:44:59.927Z,8.80
2018-12-05T21:47:33.528Z,6.90
2018-12-05T21:50:06.464Z,8.43
2018-12-05T21:52:36.824Z,9.40
2018-12-05T21:55:05.756Z,7.65
2018-12-05T21:57:38.836Z,10.20
2018-12-05T22:00:08.577Z,9.30
2018-12-05T22:02:39.904Z,8.25
2018-12-05T22:05:13.213Z,7.70
2018-12-05T22:07:43.657Z,9.38
2018-12-05T22:10:12.444Z,8.95
2018-12-05T22:12:41.346Z,7.37
2018-12-05T22:15:14.644Z,8.15
2018-12-05T22:17:45.856Z,8.40
2018-12-05T22:20:19.221Z,10.03
2018-12-05T22:22:49.691Z,8.28
2018-12-05T22:25:18.559Z,8.90
2018-12-05T22:27:51.812Z,9.53
2018-12-05T22:30:25.547Z,8.58
2018-12-05T22:32:59.232Z,8.23
2018-12-05T22:35:30.065Z,8.33
2018-12-05T22:38:03.468Z,9.53
2018-12-05T22:40:37.248Z,7.58
2018-12-05T22:43:10.124Z,9.18
2018-12-05T22:45:39.071Z,9.08
2018-12-05T22:48:12.492Z,9.55
2018-12-05T22:50:41.780Z,9.00
2018-12-05T22:53:14.936Z,10.05
2018-12-05T22:55:47.794Z,8.25
2018-12-05T22:58:20.823Z,8.30
2018-12-05T23:00:53.044Z,8.50
2018-12-05T23:03:26.844Z,8.63
2018-12-05T23:05:58.051Z,10.00
2018-12-05T23:08:31.510Z,10.00
2018-12-05T23:11:02.652Z,8.88
2018-12-05T23:13:37.458Z,10.25
2018-12-05T23:16:10.497Z,8.95
2018-12-05T23:18:40.967Z,9.03
2018-12-05T23:21:14.216Z,8.38
2018-12-05T23:23:47.932Z,9.90
2018-12-05T23:26:21.716Z,8.65
2018-12-05T23:28:50.315Z,8.10
2018-12-05T23:31:21.137Z,8.88
2018-12-05T23:33:54.269Z,8.65
2018-12-05T23:36:27.124Z,8.13
2018-12-05T23:38:57.492Z,7.20
2018-12-05T23:41:26.403Z,8.10
2018-12-05T23:43:59.916Z,7.70
2018-12-05T23:46:32.768Z,9.10
2018-12-05T23:49:06.508Z,7.87
2018-12-05T23:51:39.387Z,9.65
2018-12-05T23:54:10.631Z,9.38
2018-12-05T23:56:43.708Z,8.75
2018-12-05T23:59:14.880Z,10.63
